sensor_id;sensor_type;location;lat;lon;timestamp;P1;durP1;ratioP1;P2;durP2;ratioP2
63016;SDS011;50274;45.640;11.756;2023-02-28T00:00:30;11.15;;;5.38;;
63016;SDS011;50274;45.640;11.756;2023-02-28T00:02:56;8.90;;;5.00;;
63016;SDS011;50274;45.640;11.756;2023-02-28T00:05:23;9.77;;;4.68;;
63016;SDS011;50274;45.640;11.756;2023-02-28T00:07:50;8.65;;;4.88;;
63016;SDS011;50274;45.640;11.756;2023-02-28T00:10:17;8.27;;;4.20;;
63016;SDS011;50274;45.640;11.756;2023-02-28T00:12:49;10.00;;;4.18;;
63016;SDS011;50274;45.640;11.756;2023-02-28T00:15:16;9.07;;;4.45;;
63016;SDS011;50274;45.640;11.756;2023-02-28T00:17:42;9.65;;;4.25;;
63016;SDS011;50274;45.640;11.756;2023-02-28T00:20:09;8.95;;;3.85;;
63016;SDS011;50274;45.640;11.756;2023-02-28T00:22:50;7.50;;;3.93;;
63016;SDS011;50274;45.640;11.756;2023-02-28T00:25:19;8.88;;;4.15;;
63016;SDS011;50274;45.640;11.756;2023-02-28T00:27:47;7.90;;;3.75;;
63016;SDS011;50274;45.640;11.756;2023-02-28T00:30:17;8.05;;;4.18;;
63016;SDS011;50274;45.640;11.756;2023-02-28T00:32:45;9.50;;;4.60;;
63016;SDS011;50274;45.640;11.756;2023-02-28T00:35:11;9.80;;;4.63;;
63016;SDS011;50274;45.640;11.756;2023-02-28T00:37:37;8.07;;;4.18;;
63016;SDS011;50274;45.640;11.756;2023-02-28T00:40:03;11.88;;;4.22;;
63016;SDS011;50274;45.640;11.756;2023-02-28T00:42:31;8.90;;;4.35;;
63016;SDS011;50274;45.640;11.756;2023-02-28T00:44:57;8.27;;;4.32;;
63016;SDS011;50274;45.640;11.756;2023-02-28T00:47:23;9.27;;;4.73;;
63016;SDS011;50274;45.640;11.756;2023-02-28T00:49:49;10.35;;;4.75;;
63016;SDS011;50274;45.640;11.756;2023-02-28T00:52:15;7.50;;;3.88;;
63016;SDS011;50274;45.640;11.756;2023-02-28T00:54:41;9.17;;;3.90;;
63016;SDS011;50274;45.640;11.756;2023-02-28T00:57:06;8.32;;;4.07;;
63016;SDS011;50274;45.640;11.756;2023-02-28T00:59:32;7.47;;;3.73;;
63016;SDS011;50274;45.640;11.756;2023-02-28T01:01:58;7.60;;;3.70;;
63016;SDS011;50274;45.640;11.756;2023-02-28T01:04:24;7.87;;;3.90;;
63016;SDS011;50274;45.640;11.756;2023-02-28T01:06:50;7.60;;;3.53;;
63016;SDS011;50274;45.640;11.756;2023-02-28T01:09:15;7.37;;;3.50;;
63016;SDS011;50274;45.640;11.756;2023-02-28T01:11:41;9.37;;;4.27;;
63016;SDS011;50274;45.640;11.756;2023-02-28T01:14:10;7.40;;;3.30;;
63016;SDS011;50274;45.640;11.756;2023-02-28T01:16:43;7.85;;;3.83;;
63016;SDS011;50274;45.640;11.756;2023-02-28T01:19:09;7.78;;;3.67;;
63016;SDS011;50274;45.640;11.756;2023-02-28T01:21:35;9.10;;;3.30;;
63016;SDS011;50274;45.640;11.756;2023-02-28T01:24:01;8.32;;;3.92;;
63016;SDS011;50274;45.640;11.756;2023-02-28T01:26:28;8.07;;;3.80;;
63016;SDS011;50274;45.640;11.756;2023-02-28T01:28:54;8.00;;;3.90;;
63016;SDS011;50274;45.640;11.756;2023-02-28T01:31:21;8.23;;;3.97;;
63016;SDS011;50274;45.640;11.756;2023-02-28T01:33:47;8.70;;;4.53;;
63016;SDS011;50274;45.640;11.756;2023-02-28T01:36:18;9.05;;;3.92;;
63016;SDS011;50274;45.640;11.756;2023-02-28T01:38:45;7.78;;;4.05;;
63016;SDS011;50274;45.640;11.756;2023-02-28T01:41:22;7.97;;;4.10;;
63016;SDS011;50274;45.640;11.756;2023-02-28T01:43:59;8.48;;;3.58;;
63016;SDS011;50274;45.640;11.756;2023-02-28T01:46:46;7.80;;;3.90;;
63016;SDS011;50274;45.640;11.756;2023-02-28T01:49:13;9.45;;;3.90;;
63016;SDS011;50274;45.640;11.756;2023-02-28T01:51:43;8.93;;;4.37;;
63016;SDS011;50274;45.640;11.756;2023-02-28T01:54:16;7.65;;;3.63;;
63016;SDS011;50274;45.640;11.756;2023-02-28T01:56:51;8.43;;;4.13;;
63016;SDS011;50274;45.640;11.756;2023-02-28T01:59:42;8.93;;;4.10;;
63016;SDS011;50274;45.640;11.756;2023-02-28T02:02:12;8.07;;;3.90;;
63016;SDS011;50274;45.640;11.756;2023-02-28T02:04:46;7.80;;;3.53;;
63016;SDS011;50274;45.640;11.756;2023-02-28T02:07:18;8.60;;;3.88;;
63016;SDS011;50274;45.640;11.756;2023-02-28T02:09:44;8.10;;;3.95;;
63016;SDS011;50274;45.640;11.756;2023-02-28T02:12:53;6.72;;;3.50;;
63016;SDS011;50274;45.640;11.756;2023-02-28T02:18:04;7.20;;;3.45;;
63016;SDS011;50274;45.640;11.756;2023-02-28T02:27:03;7.35;;;3.20;;
63016;SDS011;50274;45.640;11.756;2023-02-28T02:29:47;7.90;;;3.57;;
63016;SDS011;50274;45.640;11.756;2023-02-28T02:38:00;6.82;;;3.10;;
63016;SDS011;50274;45.640;11.756;2023-02-28T02:40:46;8.88;;;3.70;;
63016;SDS011;50274;45.640;11.756;2023-02-28T02:43:34;7.33;;;2.90;;
63016;SDS011;50274;45.640;11.756;2023-02-28T02:46:25;6.75;;;3.08;;
63016;SDS011;50274;45.640;11.756;2023-02-28T02:48:55;5.85;;;2.70;;
63016;SDS011;50274;45.640;11.756;2023-02-28T02:51:23;8.15;;;3.53;;
63016;SDS011;50274;45.640;11.756;2023-02-28T02:53:53;8.35;;;3.58;;
63016;SDS011;50274;45.640;11.756;2023-02-28T02:56:25;8.20;;;3.60;;
63016;SDS011;50274;45.640;11.756;2023-02-28T02:58:53;6.07;;;3.15;;
63016;SDS011;50274;45.640;11.756;2023-02-28T03:01:24;8.10;;;3.83;;
63016;SDS011;50274;45.640;11.756;2023-02-28T03:06:52;8.00;;;3.45;;
63016;SDS011;50274;45.640;11.756;2023-02-28T03:09:20;7.73;;;3.73;;
63016;SDS011;50274;45.640;11.756;2023-02-28T03:11:47;8.13;;;3.70;;
63016;SDS011;50274;45.640;11.756;2023-02-28T03:23:23;8.87;;;3.97;;
63016;SDS011;50274;45.640;11.756;2023-02-28T03:26:02;8.77;;;4.03;;
63016;SDS011;50274;45.640;11.756;2023-02-28T03:28:50;8.75;;;3.75;;
63016;SDS011;50274;45.640;11.756;2023-02-28T03:34:50;7.28;;;3.00;;
63016;SDS011;50274;45.640;11.756;2023-02-28T03:37:23;6.57;;;2.80;;
63016;SDS011;50274;45.640;11.756;2023-02-28T03:39:56;8.82;;;3.35;;
63016;SDS011;50274;45.640;11.756;2023-02-28T03:42:26;7.53;;;3.60;;
63016;SDS011;50274;45.640;11.756;2023-02-28T03:44:57;7.43;;;3.58;;
63016;SDS011;50274;45.640;11.756;2023-02-28T03:47:29;9.70;;;4.15;;
63016;SDS011;50274;45.640;11.756;2023-02-28T03:50:06;6.93;;;3.43;;
63016;SDS011;50274;45.640;11.756;2023-02-28T03:52:42;7.63;;;3.45;;
63016;SDS011;50274;45.640;11.756;2023-02-28T03:55:12;7.65;;;3.95;;
63016;SDS011;50274;45.640;11.756;2023-02-28T04:00:45;8.82;;;4.03;;
63016;SDS011;50274;45.640;11.756;2023-02-28T04:03:14;7.93;;;3.80;;
63016;SDS011;50274;45.640;11.756;2023-02-28T04:05:50;8.27;;;4.20;;
63016;SDS011;50274;45.640;11.756;2023-02-28T04:08:19;7.90;;;3.78;;
63016;SDS011;50274;45.640;11.756;2023-02-28T04:10:48;8.15;;;4.22;;
63016;SDS011;50274;45.640;11.756;2023-02-28T04:13:20;8.30;;;3.95;;
63016;SDS011;50274;45.640;11.756;2023-02-28T04:15:46;7.93;;;3.60;;
63016;SDS011;50274;45.640;11.756;2023-02-28T04:18:12;7.90;;;3.65;;
63016;SDS011;50274;45.640;11.756;2023-02-28T04:20:38;11.43;;;4.23;;
63016;SDS011;50274;45.640;11.756;2023-02-28T04:23:03;8.32;;;4.03;;
63016;SDS011;50274;45.640;11.756;2023-02-28T04:25:29;8.87;;;4.43;;
63016;SDS011;50274;45.640;11.756;2023-02-28T04:27:55;7.82;;;4.35;;
63016;SDS011;50274;45.640;11.756;2023-02-28T04:30:21;10.13;;;4.07;;
63016;SDS011;50274;45.640;11.756;2023-02-28T04:32:47;8.00;;;3.87;;
63016;SDS011;50274;45.640;11.756;2023-02-28T04:35:12;7.25;;;3.28;;
63016;SDS011;50274;45.640;11.756;2023-02-28T04:37:38;8.90;;;4.27;;
63016;SDS011;50274;45.640;11.756;2023-02-28T04:40:04;7.80;;;3.30;;
63016;SDS011;50274;45.640;11.756;2023-02-28T04:42:30;8.82;;;3.50;;
63016;SDS011;50274;45.640;11.756;2023-02-28T04:45:04;8.98;;;4.10;;
63016;SDS011;50274;45.640;11.756;2023-02-28T04:47:30;11.37;;;5.30;;
63016;SDS011;50274;45.640;11.756;2023-02-28T04:49:56;8.02;;;4.25;;
63016;SDS011;50274;45.640;11.756;2023-02-28T04:52:22;9.27;;;3.95;;
63016;SDS011;50274;45.640;11.756;2023-02-28T04:54:48;10.30;;;4.50;;
63016;SDS011;50274;45.640;11.756;2023-02-28T04:57:14;7.87;;;4.03;;
63016;SDS011;50274;45.640;11.756;2023-02-28T04:59:40;9.32;;;4.10;;
63016;SDS011;50274;45.640;11.756;2023-02-28T05:02:06;8.67;;;4.20;;
63016;SDS011;50274;45.640;11.756;2023-02-28T05:04:33;8.23;;;3.75;;
63016;SDS011;50274;45.640;11.756;2023-02-28T05:06:59;7.82;;;3.70;;
63016;SDS011;50274;45.640;11.756;2023-02-28T05:09:26;10.98;;;4.05;;
63016;SDS011;50274;45.640;11.756;2023-02-28T05:11:53;8.33;;;3.90;;
63016;SDS011;50274;45.640;11.756;2023-02-28T05:14:18;8.00;;;3.28;;
63016;SDS011;50274;45.640;11.756;2023-02-28T05:16:44;6.38;;;2.92;;
63016;SDS011;50274;45.640;11.756;2023-02-28T05:19:10;7.37;;;3.40;;
63016;SDS011;50274;45.640;11.756;2023-02-28T05:21:37;7.20;;;3.15;;
63016;SDS011;50274;45.640;11.756;2023-02-28T05:24:11;6.97;;;3.30;;
63016;SDS011;50274;45.640;11.756;2023-02-28T05:26:38;7.63;;;3.60;;
63016;SDS011;50274;45.640;11.756;2023-02-28T05:29:06;7.90;;;3.57;;
63016;SDS011;50274;45.640;11.756;2023-02-28T05:31:32;9.80;;;4.00;;
63016;SDS011;50274;45.640;11.756;2023-02-28T05:33:58;8.77;;;4.30;;
63016;SDS011;50274;45.640;11.756;2023-02-28T05:36:24;8.50;;;4.33;;
63016;SDS011;50274;45.640;11.756;2023-02-28T05:38:51;9.25;;;4.22;;
63016;SDS011;50274;45.640;11.756;2023-02-28T05:41:17;10.48;;;4.18;;
63016;SDS011;50274;45.640;11.756;2023-02-28T05:43:47;9.77;;;4.30;;
63016;SDS011;50274;45.640;11.756;2023-02-28T05:46:13;7.13;;;3.40;;
63016;SDS011;50274;45.640;11.756;2023-02-28T05:48:40;8.03;;;3.53;;
63016;SDS011;50274;45.640;11.756;2023-02-28T05:51:07;8.02;;;3.63;;
63016;SDS011;50274;45.640;11.756;2023-02-28T05:53:34;8.52;;;4.30;;
63016;SDS011;50274;45.640;11.756;2023-02-28T05:55:59;9.13;;;4.10;;
63016;SDS011;50274;45.640;11.756;2023-02-28T05:58:25;10.77;;;4.10;;
63016;SDS011;50274;45.640;11.756;2023-02-28T06:00:55;10.32;;;4.38;;
63016;SDS011;50274;45.640;11.756;2023-02-28T06:03:22;12.73;;;5.25;;
63016;SDS011;50274;45.640;11.756;2023-02-28T06:05:48;9.43;;;4.60;;
63016;SDS011;50274;45.640;11.756;2023-02-28T06:08:15;11.55;;;5.45;;
63016;SDS011;50274;45.640;11.756;2023-02-28T06:10:41;12.27;;;6.05;;
63016;SDS011;50274;45.640;11.756;2023-02-28T06:13:07;11.82;;;5.22;;
63016;SDS011;50274;45.640;11.756;2023-02-28T06:15:33;10.43;;;5.80;;
63016;SDS011;50274;45.640;11.756;2023-02-28T06:17:59;12.43;;;5.55;;
63016;SDS011;50274;45.640;11.756;2023-02-28T06:20:25;11.13;;;4.60;;
63016;SDS011;50274;45.640;11.756;2023-02-28T06:22:56;8.93;;;4.78;;
63016;SDS011;50274;45.640;11.756;2023-02-28T06:25:23;10.83;;;5.13;;
63016;SDS011;50274;45.640;11.756;2023-02-28T06:27:50;9.57;;;4.38;;
63016;SDS011;50274;45.640;11.756;2023-02-28T06:30:16;10.68;;;4.93;;
63016;SDS011;50274;45.640;11.756;2023-02-28T06:32:42;10.27;;;5.20;;
63016;SDS011;50274;45.640;11.756;2023-02-28T06:35:08;12.37;;;4.70;;
63016;SDS011;50274;45.640;11.756;2023-02-28T06:37:34;9.30;;;4.55;;
63016;SDS011;50274;45.640;11.756;2023-02-28T06:40:00;12.13;;;5.22;;
63016;SDS011;50274;45.640;11.756;2023-02-28T06:42:26;10.43;;;5.03;;
63016;SDS011;50274;45.640;11.756;2023-02-28T06:44:54;10.55;;;4.93;;
63016;SDS011;50274;45.640;11.756;2023-02-28T06:47:20;11.30;;;5.55;;
63016;SDS011;50274;45.640;11.756;2023-02-28T06:49:46;10.68;;;6.18;;
63016;SDS011;50274;45.640;11.756;2023-02-28T06:52:12;10.85;;;5.78;;
63016;SDS011;50274;45.640;11.756;2023-02-28T06:54:39;12.00;;;6.07;;
63016;SDS011;50274;45.640;11.756;2023-02-28T06:57:05;11.77;;;5.90;;
63016;SDS011;50274;45.640;11.756;2023-02-28T06:59:30;12.65;;;5.90;;
63016;SDS011;50274;45.640;11.756;2023-02-28T07:01:57;13.37;;;6.30;;
63016;SDS011;50274;45.640;11.756;2023-02-28T07:04:23;15.80;;;8.35;;
63016;SDS011;50274;45.640;11.756;2023-02-28T07:06:49;15.65;;;7.85;;
63016;SDS011;50274;45.640;11.756;2023-02-28T07:09:15;16.40;;;7.87;;
63016;SDS011;50274;45.640;11.756;2023-02-28T07:11:41;17.70;;;8.32;;
63016;SDS011;50274;45.640;11.756;2023-02-28T07:14:07;23.83;;;9.88;;
63016;SDS011;50274;45.640;11.756;2023-02-28T07:16:33;24.60;;;10.52;;
63016;SDS011;50274;45.640;11.756;2023-02-28T07:19:00;24.08;;;11.10;;
63016;SDS011;50274;45.640;11.756;2023-02-28T07:21:26;21.23;;;9.53;;
63016;SDS011;50274;45.640;11.756;2023-02-28T07:23:51;15.00;;;6.32;;
63016;SDS011;50274;45.640;11.756;2023-02-28T07:26:18;10.70;;;5.07;;
63016;SDS011;50274;45.640;11.756;2023-02-28T07:28:45;12.02;;;5.85;;
63016;SDS011;50274;45.640;11.756;2023-02-28T07:31:12;10.68;;;4.85;;
63016;SDS011;50274;45.640;11.756;2023-02-28T07:33:40;13.70;;;5.63;;
63016;SDS011;50274;45.640;11.756;2023-02-28T07:36:08;11.07;;;5.00;;
63016;SDS011;50274;45.640;11.756;2023-02-28T07:38:40;12.60;;;5.30;;
63016;SDS011;50274;45.640;11.756;2023-02-28T07:41:11;12.05;;;5.07;;
63016;SDS011;50274;45.640;11.756;2023-02-28T07:43:37;11.90;;;4.82;;
63016;SDS011;50274;45.640;11.756;2023-02-28T07:46:07;12.60;;;5.88;;
63016;SDS011;50274;45.640;11.756;2023-02-28T07:48:35;11.50;;;5.40;;
63016;SDS011;50274;45.640;11.756;2023-02-28T07:51:01;12.35;;;5.75;;
63016;SDS011;50274;45.640;11.756;2023-02-28T07:53:27;14.45;;;5.55;;
63016;SDS011;50274;45.640;11.756;2023-02-28T07:55:55;10.15;;;5.07;;
63016;SDS011;50274;45.640;11.756;2023-02-28T07:58:21;14.05;;;5.70;;
63016;SDS011;50274;45.640;11.756;2023-02-28T08:00:48;11.50;;;5.00;;
63016;SDS011;50274;45.640;11.756;2023-02-28T08:03:13;12.05;;;5.20;;
63016;SDS011;50274;45.640;11.756;2023-02-28T08:05:42;10.85;;;4.50;;
63016;SDS011;50274;45.640;11.756;2023-02-28T08:08:08;11.80;;;4.87;;
63016;SDS011;50274;45.640;11.756;2023-02-28T08:10:34;11.13;;;5.22;;
63016;SDS011;50274;45.640;11.756;2023-02-28T08:13:00;12.02;;;5.38;;
63016;SDS011;50274;45.640;11.756;2023-02-28T08:15:26;10.67;;;4.83;;
63016;SDS011;50274;45.640;11.756;2023-02-28T08:17:52;12.20;;;4.95;;
63016;SDS011;50274;45.640;11.756;2023-02-28T08:20:18;9.93;;;4.80;;
63016;SDS011;50274;45.640;11.756;2023-02-28T08:22:44;12.53;;;5.63;;
63016;SDS011;50274;45.640;11.756;2023-02-28T08:25:10;10.73;;;5.15;;
63016;SDS011;50274;45.640;11.756;2023-02-28T08:27:36;11.02;;;5.32;;
63016;SDS011;50274;45.640;11.756;2023-02-28T08:30:02;12.33;;;5.50;;
63016;SDS011;50274;45.640;11.756;2023-02-28T08:32:28;12.33;;;5.43;;
63016;SDS011;50274;45.640;11.756;2023-02-28T08:34:54;14.40;;;5.50;;
63016;SDS011;50274;45.640;11.756;2023-02-28T08:37:21;13.57;;;5.93;;
63016;SDS011;50274;45.640;11.756;2023-02-28T08:39:46;11.43;;;5.05;;
63016;SDS011;50274;45.640;11.756;2023-02-28T08:42:12;11.10;;;5.20;;
63016;SDS011;50274;45.640;11.756;2023-02-28T08:44:38;12.32;;;5.30;;
63016;SDS011;50274;45.640;11.756;2023-02-28T08:47:05;11.37;;;5.83;;
63016;SDS011;50274;45.640;11.756;2023-02-28T08:49:33;10.82;;;4.88;;
63016;SDS011;50274;45.640;11.756;2023-02-28T08:52:02;10.55;;;5.15;;
63016;SDS011;50274;45.640;11.756;2023-02-28T08:54:28;12.98;;;5.45;;
63016;SDS011;50274;45.640;11.756;2023-02-28T08:56:56;12.02;;;5.22;;
63016;SDS011;50274;45.640;11.756;2023-02-28T08:59:22;11.73;;;5.37;;
63016;SDS011;50274;45.640;11.756;2023-02-28T09:01:48;11.70;;;5.55;;
63016;SDS011;50274;45.640;11.756;2023-02-28T09:04:14;11.95;;;5.50;;
63016;SDS011;50274;45.640;11.756;2023-02-28T09:06:40;13.43;;;5.40;;
63016;SDS011;50274;45.640;11.756;2023-02-28T09:09:05;10.50;;;4.72;;
63016;SDS011;50274;45.640;11.756;2023-02-28T09:11:32;11.70;;;5.13;;
63016;SDS011;50274;45.640;11.756;2023-02-28T09:14:00;11.32;;;5.13;;
63016;SDS011;50274;45.640;11.756;2023-02-28T09:16:28;12.73;;;5.03;;
63016;SDS011;50274;45.640;11.756;2023-02-28T09:18:55;10.82;;;5.07;;
63016;SDS011;50274;45.640;11.756;2023-02-28T09:21:21;12.10;;;5.28;;
63016;SDS011;50274;45.640;11.756;2023-02-28T09:23:49;12.23;;;5.55;;
63016;SDS011;50274;45.640;11.756;2023-02-28T09:26:19;13.25;;;4.85;;
63016;SDS011;50274;45.640;11.756;2023-02-28T09:28:51;15.30;;;5.40;;
63016;SDS011;50274;45.640;11.756;2023-02-28T09:31:19;11.23;;;5.35;;
63016;SDS011;50274;45.640;11.756;2023-02-28T09:33:50;12.07;;;5.30;;
63016;SDS011;50274;45.640;11.756;2023-02-28T09:36:18;13.98;;;5.68;;
63016;SDS011;50274;45.640;11.756;2023-02-28T09:38:44;10.73;;;4.75;;
63016;SDS011;50274;45.640;11.756;2023-02-28T09:41:32;10.97;;;4.40;;
63016;SDS011;50274;45.640;11.756;2023-02-28T09:46:44;10.38;;;5.00;;
63016;SDS011;50274;45.640;11.756;2023-02-28T09:49:27;10.02;;;5.15;;
63016;SDS011;50274;45.640;11.756;2023-02-28T09:52:07;9.75;;;4.60;;
63016;SDS011;50274;45.640;11.756;2023-02-28T09:54:44;12.67;;;4.17;;
63016;SDS011;50274;45.640;11.756;2023-02-28T10:02:46;12.75;;;5.32;;
63016;SDS011;50274;45.640;11.756;2023-02-28T10:05:23;12.15;;;4.85;;
63016;SDS011;50274;45.640;11.756;2023-02-28T10:10:41;11.52;;;5.47;;
63016;SDS011;50274;45.640;11.756;2023-02-28T10:16:06;11.07;;;5.07;;
63016;SDS011;50274;45.640;11.756;2023-02-28T10:18:41;11.73;;;5.57;;
63016;SDS011;50274;45.640;11.756;2023-02-28T10:21:23;12.80;;;6.27;;
63016;SDS011;50274;45.640;11.756;2023-02-28T10:26:46;10.93;;;4.57;;
63016;SDS011;50274;45.640;11.756;2023-02-28T10:29:13;12.77;;;5.35;;
63016;SDS011;50274;45.640;11.756;2023-02-28T10:31:40;9.23;;;5.00;;
63016;SDS011;50274;45.640;11.756;2023-02-28T10:34:07;10.50;;;5.63;;
63016;SDS011;50274;45.640;11.756;2023-02-28T10:36:35;9.32;;;4.53;;
63016;SDS011;50274;45.640;11.756;2023-02-28T10:39:01;10.05;;;5.75;;
63016;SDS011;50274;45.640;11.756;2023-02-28T10:41:59;11.70;;;5.05;;
63016;SDS011;50274;45.640;11.756;2023-02-28T10:44:25;11.53;;;4.70;;
63016;SDS011;50274;45.640;11.756;2023-02-28T10:46:51;8.90;;;4.22;;
63016;SDS011;50274;45.640;11.756;2023-02-28T10:49:24;12.07;;;4.80;;
63016;SDS011;50274;45.640;11.756;2023-02-28T10:51:53;9.57;;;4.75;;
63016;SDS011;50274;45.640;11.756;2023-02-28T10:54:29;15.47;;;5.03;;
63016;SDS011;50274;45.640;11.756;2023-02-28T10:57:06;9.90;;;4.38;;
63016;SDS011;50274;45.640;11.756;2023-02-28T10:59:44;10.93;;;5.05;;
63016;SDS011;50274;45.640;11.756;2023-02-28T11:02:30;14.50;;;4.95;;
63016;SDS011;50274;45.640;11.756;2023-02-28T11:05:01;11.52;;;4.82;;
63016;SDS011;50274;45.640;11.756;2023-02-28T11:07:27;9.30;;;4.93;;
63016;SDS011;50274;45.640;11.756;2023-02-28T11:09:56;11.00;;;4.57;;
63016;SDS011;50274;45.640;11.756;2023-02-28T11:12:27;12.68;;;4.95;;
63016;SDS011;50274;45.640;11.756;2023-02-28T11:15:01;11.10;;;5.45;;
63016;SDS011;50274;45.640;11.756;2023-02-28T11:17:52;13.88;;;5.00;;
63016;SDS011;50274;45.640;11.756;2023-02-28T11:20:22;9.17;;;4.80;;
63016;SDS011;50274;45.640;11.756;2023-02-28T11:22:50;11.15;;;4.72;;
63016;SDS011;50274;45.640;11.756;2023-02-28T11:25:26;10.00;;;4.82;;
63016;SDS011;50274;45.640;11.756;2023-02-28T11:27:56;12.20;;;4.97;;
63016;SDS011;50274;45.640;11.756;2023-02-28T11:34:07;9.57;;;4.67;;
63016;SDS011;50274;45.640;11.756;2023-02-28T11:36:15;12.15;;;5.25;;
63016;SDS011;50274;45.640;11.756;2023-02-28T11:38:41;8.95;;;4.80;;
63016;SDS011;50274;45.640;11.756;2023-02-28T11:41:15;9.00;;;4.72;;
63016;SDS011;50274;45.640;11.756;2023-02-28T11:48:52;11.35;;;4.97;;
63016;SDS011;50274;45.640;11.756;2023-02-28T11:51:41;8.35;;;4.60;;
63016;SDS011;50274;45.640;11.756;2023-02-28T12:08:53;11.10;;;4.43;;
63016;SDS011;50274;45.640;11.756;2023-02-28T12:11:47;10.25;;;4.40;;
63016;SDS011;50274;45.640;11.756;2023-02-28T12:27:40;9.57;;;4.78;;
63016;SDS011;50274;45.640;11.756;2023-02-28T12:32:58;9.67;;;4.57;;
63016;SDS011;50274;45.640;11.756;2023-02-28T12:35:49;10.05;;;4.72;;
63016;SDS011;50274;45.640;11.756;2023-02-28T12:38:26;8.23;;;3.92;;
63016;SDS011;50274;45.640;11.756;2023-02-28T12:41:14;9.00;;;4.35;;
63016;SDS011;50274;45.640;11.756;2023-02-28T12:43:48;10.27;;;4.32;;
63016;SDS011;50274;45.640;11.756;2023-02-28T12:46:29;10.07;;;4.83;;
63016;SDS011;50274;45.640;11.756;2023-02-28T12:49:05;10.68;;;4.75;;
63016;SDS011;50274;45.640;11.756;2023-02-28T12:51:35;10.15;;;4.55;;
63016;SDS011;50274;45.640;11.756;2023-02-28T12:57:10;10.32;;;4.18;;
63016;SDS011;50274;45.640;11.756;2023-02-28T12:59:46;8.53;;;4.60;;
63016;SDS011;50274;45.640;11.756;2023-02-28T13:05:19;9.73;;;4.85;;
63016;SDS011;50274;45.640;11.756;2023-02-28T13:08:05;10.48;;;4.68;;
63016;SDS011;50274;45.640;11.756;2023-02-28T13:10:44;8.80;;;4.53;;
63016;SDS011;50274;45.640;11.756;2023-02-28T13:13:17;10.47;;;4.90;;
63016;SDS011;50274;45.640;11.756;2023-02-28T13:16:07;10.07;;;4.43;;
63016;SDS011;50274;45.640;11.756;2023-02-28T13:18:44;8.30;;;4.13;;
63016;SDS011;50274;45.640;11.756;2023-02-28T13:21:22;10.48;;;5.13;;
63016;SDS011;50274;45.640;11.756;2023-02-28T13:24:00;9.98;;;5.03;;
63016;SDS011;50274;45.640;11.756;2023-02-28T13:34:30;13.88;;;5.75;;
63016;SDS011;50274;45.640;11.756;2023-02-28T13:47:41;9.80;;;4.95;;
63016;SDS011;50274;45.640;11.756;2023-02-28T13:50:21;10.43;;;4.88;;
63016;SDS011;50274;45.640;11.756;2023-02-28T13:55:29;11.70;;;5.20;;
63016;SDS011;50274;45.640;11.756;2023-02-28T14:06:52;10.57;;;5.20;;
63016;SDS011;50274;45.640;11.756;2023-02-28T14:09:30;9.68;;;4.60;;
63016;SDS011;50274;45.640;11.756;2023-02-28T14:11:57;10.30;;;4.90;;
63016;SDS011;50274;45.640;11.756;2023-02-28T14:17:12;10.47;;;5.00;;
63016;SDS011;50274;45.640;11.756;2023-02-28T14:19:41;10.40;;;4.78;;
63016;SDS011;50274;45.640;11.756;2023-02-28T14:31:24;11.18;;;5.43;;
63016;SDS011;50274;45.640;11.756;2023-02-28T14:36:27;9.40;;;5.05;;
63016;SDS011;50274;45.640;11.756;2023-02-28T14:39:05;10.90;;;5.20;;
63016;SDS011;50274;45.640;11.756;2023-02-28T14:41:41;9.50;;;4.90;;
63016;SDS011;50274;45.640;11.756;2023-02-28T14:44:15;9.10;;;4.25;;
63016;SDS011;50274;45.640;11.756;2023-02-28T14:46:43;11.43;;;4.82;;
63016;SDS011;50274;45.640;11.756;2023-02-28T14:49:34;10.80;;;5.05;;
63016;SDS011;50274;45.640;11.756;2023-02-28T14:52:07;10.53;;;5.13;;
63016;SDS011;50274;45.640;11.756;2023-02-28T14:54:44;9.63;;;4.88;;
63016;SDS011;50274;45.640;11.756;2023-02-28T14:57:26;11.68;;;4.97;;
63016;SDS011;50274;45.640;11.756;2023-02-28T14:59:57;11.82;;;5.03;;
63016;SDS011;50274;45.640;11.756;2023-02-28T15:02:25;10.38;;;5.30;;
63016;SDS011;50274;45.640;11.756;2023-02-28T15:04:58;9.43;;;4.60;;
63016;SDS011;50274;45.640;11.756;2023-02-28T15:07:26;9.18;;;4.82;;
63016;SDS011;50274;45.640;11.756;2023-02-28T15:12:34;9.15;;;4.28;;
63016;SDS011;50274;45.640;11.756;2023-02-28T15:15:02;10.32;;;4.97;;
63016;SDS011;50274;45.640;11.756;2023-02-28T15:17:28;8.83;;;4.20;;
63016;SDS011;50274;45.640;11.756;2023-02-28T15:19:54;9.30;;;4.55;;
63016;SDS011;50274;45.640;11.756;2023-02-28T15:22:24;8.48;;;3.97;;
63016;SDS011;50274;45.640;11.756;2023-02-28T15:24:54;11.75;;;4.70;;
63016;SDS011;50274;45.640;11.756;2023-02-28T15:27:25;12.50;;;4.97;;
63016;SDS011;50274;45.640;11.756;2023-02-28T15:29:54;11.10;;;4.97;;
63016;SDS011;50274;45.640;11.756;2023-02-28T15:32:24;11.57;;;4.40;;
63016;SDS011;50274;45.640;11.756;2023-02-28T15:34:58;9.35;;;5.35;;
63016;SDS011;50274;45.640;11.756;2023-02-28T15:37:48;11.15;;;4.93;;
63016;SDS011;50274;45.640;11.756;2023-02-28T15:40:25;11.20;;;5.43;;
63016;SDS011;50274;45.640;11.756;2023-02-28T15:43:25;8.70;;;4.50;;
63016;SDS011;50274;45.640;11.756;2023-02-28T15:46:01;12.07;;;4.85;;
63016;SDS011;50274;45.640;11.756;2023-02-28T15:48:38;10.02;;;4.78;;
63016;SDS011;50274;45.640;11.756;2023-02-28T15:51:18;12.45;;;4.70;;
63016;SDS011;50274;45.640;11.756;2023-02-28T15:56:31;12.73;;;5.17;;
63016;SDS011;50274;45.640;11.756;2023-02-28T15:59:01;12.80;;;5.35;;
63016;SDS011;50274;45.640;11.756;2023-02-28T16:01:31;9.95;;;5.13;;
63016;SDS011;50274;45.640;11.756;2023-02-28T16:04:05;9.75;;;5.00;;
63016;SDS011;50274;45.640;11.756;2023-02-28T16:09:06;11.93;;;4.90;;
63016;SDS011;50274;45.640;11.756;2023-02-28T16:11:35;7.78;;;4.50;;
63016;SDS011;50274;45.640;11.756;2023-02-28T16:14:04;11.27;;;4.38;;
63016;SDS011;50274;45.640;11.756;2023-02-28T16:16:30;12.20;;;5.15;;
63016;SDS011;50274;45.640;11.756;2023-02-28T16:18:57;9.93;;;4.68;;
63016;SDS011;50274;45.640;11.756;2023-02-28T16:21:24;11.43;;;4.93;;
63016;SDS011;50274;45.640;11.756;2023-02-28T16:23:50;9.48;;;4.10;;
63016;SDS011;50274;45.640;11.756;2023-02-28T16:26:20;10.82;;;4.82;;
63016;SDS011;50274;45.640;11.756;2023-02-28T16:28:47;11.32;;;5.10;;
63016;SDS011;50274;45.640;11.756;2023-02-28T16:31:14;8.77;;;4.72;;
63016;SDS011;50274;45.640;11.756;2023-02-28T16:33:41;12.67;;;4.97;;
63016;SDS011;50274;45.640;11.756;2023-02-28T16:36:12;9.55;;;5.22;;
63016;SDS011;50274;45.640;11.756;2023-02-28T16:38:39;9.98;;;4.68;;
63016;SDS011;50274;45.640;11.756;2023-02-28T16:41:05;11.73;;;5.57;;
63016;SDS011;50274;45.640;11.756;2023-02-28T16:43:31;11.90;;;6.00;;
63016;SDS011;50274;45.640;11.756;2023-02-28T16:45:58;13.43;;;5.97;;
63016;SDS011;50274;45.640;11.756;2023-02-28T16:48:24;14.05;;;6.20;;
63016;SDS011;50274;45.640;11.756;2023-02-28T16:50:50;17.02;;;6.57;;
63016;SDS011;50274;45.640;11.756;2023-02-28T16:53:16;16.30;;;6.70;;
63016;SDS011;50274;45.640;11.756;2023-02-28T16:55:42;15.27;;;6.95;;
63016;SDS011;50274;45.640;11.756;2023-02-28T16:58:11;15.43;;;6.55;;
63016;SDS011;50274;45.640;11.756;2023-02-28T17:00:40;12.35;;;6.13;;
63016;SDS011;50274;45.640;11.756;2023-02-28T17:03:22;13.37;;;7.50;;
63016;SDS011;50274;45.640;11.756;2023-02-28T17:05:50;17.42;;;7.93;;
63016;SDS011;50274;45.640;11.756;2023-02-28T17:08:16;14.80;;;7.50;;
63016;SDS011;50274;45.640;11.756;2023-02-28T17:10:42;15.70;;;7.55;;
63016;SDS011;50274;45.640;11.756;2023-02-28T17:13:08;12.97;;;6.87;;